Abee, Canada
Current Conditions -  °F | °C
As of 11:00 AM on Friday 31 Oct 2014 (Local Time) from CYED Reporting Station
Clear Clear  
Wind Chill: 37°   Ceiling: Unl
Heat Index: 37°   Visibility: 8mi
Dew Point: 34°   Wind: 3mph
Humidity: 87%   Direction: 110°ESE
Pressure: 29.59"   Gusts: NA
Location:  54.23°N, 113.02°W
Report Text: CYED 311700Z AUTO 11003KT 8SM CLR 03/01 A2959 RMK SLP043
Loading
Personal Weather Stations






























Interactive Weather Map
Tropical Storm Tracking
New forecast layout! Learn more

10-Day Weather Forecast

Advertisements
Track Severe Weather on mobile